sensor_id;sensor_type;location;lat;lon;timestamp;P1;durP1;ratioP1;P2;durP2;ratioP2
11222;SDS011;5668;52.012;8.724;2023-05-07T00:00:09;18.67;;;16.77;;
11222;SDS011;5668;52.012;8.724;2023-05-07T00:02:37;19.23;;;17.33;;
11222;SDS011;5668;52.012;8.724;2023-05-07T00:05:04;23.02;;;20.77;;
11222;SDS011;5668;52.012;8.724;2023-05-07T00:07:33;41.42;;;37.45;;
11222;SDS011;5668;52.012;8.724;2023-05-07T00:10:00;29.35;;;26.55;;
11222;SDS011;5668;52.012;8.724;2023-05-07T00:12:28;26.05;;;23.55;;
11222;SDS011;5668;52.012;8.724;2023-05-07T00:14:56;29.63;;;26.90;;
11222;SDS011;5668;52.012;8.724;2023-05-07T00:17:23;28.02;;;25.48;;
11222;SDS011;5668;52.012;8.724;2023-05-07T00:19:50;25.17;;;22.70;;
11222;SDS011;5668;52.012;8.724;2023-05-07T00:22:18;21.98;;;19.88;;
11222;SDS011;5668;52.012;8.724;2023-05-07T00:24:46;21.48;;;19.38;;
11222;SDS011;5668;52.012;8.724;2023-05-07T00:27:13;18.75;;;16.98;;
11222;SDS011;5668;52.012;8.724;2023-05-07T00:29:41;18.77;;;16.88;;
11222;SDS011;5668;52.012;8.724;2023-05-07T00:32:08;18.95;;;17.05;;
11222;SDS011;5668;52.012;8.724;2023-05-07T00:34:35;18.55;;;16.58;;
11222;SDS011;5668;52.012;8.724;2023-05-07T00:37:04;19.10;;;16.48;;
11222;SDS011;5668;52.012;8.724;2023-05-07T00:39:32;17.60;;;15.07;;
11222;SDS011;5668;52.012;8.724;2023-05-07T00:42:01;16.98;;;15.18;;
11222;SDS011;5668;52.012;8.724;2023-05-07T00:44:28;17.40;;;15.52;;
11222;SDS011;5668;52.012;8.724;2023-05-07T00:46:56;17.33;;;15.53;;
11222;SDS011;5668;52.012;8.724;2023-05-07T00:49:24;18.08;;;16.17;;
11222;SDS011;5668;52.012;8.724;2023-05-07T00:52:00;17.58;;;15.77;;
11222;SDS011;5668;52.012;8.724;2023-05-07T00:54:28;17.80;;;15.90;;
11222;SDS011;5668;52.012;8.724;2023-05-07T00:56:55;17.50;;;15.70;;
11222;SDS011;5668;52.012;8.724;2023-05-07T00:59:24;16.57;;;14.97;;
11222;SDS011;5668;52.012;8.724;2023-05-07T01:01:51;16.67;;;14.98;;
11222;SDS011;5668;52.012;8.724;2023-05-07T01:04:21;16.23;;;14.53;;
11222;SDS011;5668;52.012;8.724;2023-05-07T01:06:49;18.17;;;15.67;;
11222;SDS011;5668;52.012;8.724;2023-05-07T01:09:18;16.90;;;15.17;;
11222;SDS011;5668;52.012;8.724;2023-05-07T01:11:47;17.40;;;15.17;;
11222;SDS011;5668;52.012;8.724;2023-05-07T01:14:15;17.13;;;15.32;;
11222;SDS011;5668;52.012;8.724;2023-05-07T01:16:45;16.77;;;14.98;;
11222;SDS011;5668;52.012;8.724;2023-05-07T01:19:12;17.10;;;14.87;;
11222;SDS011;5668;52.012;8.724;2023-05-07T01:21:43;15.67;;;14.17;;
11222;SDS011;5668;52.012;8.724;2023-05-07T01:24:14;15.90;;;14.23;;
11222;SDS011;5668;52.012;8.724;2023-05-07T01:26:42;15.70;;;14.10;;
11222;SDS011;5668;52.012;8.724;2023-05-07T01:29:10;17.23;;;15.53;;
11222;SDS011;5668;52.012;8.724;2023-05-07T01:31:37;17.33;;;15.60;;
11222;SDS011;5668;52.012;8.724;2023-05-07T01:34:06;16.53;;;14.83;;
11222;SDS011;5668;52.012;8.724;2023-05-07T01:36:34;15.98;;;14.32;;
11222;SDS011;5668;52.012;8.724;2023-05-07T01:39:04;19.50;;;16.00;;
11222;SDS011;5668;52.012;8.724;2023-05-07T01:41:34;16.27;;;14.63;;
11222;SDS011;5668;52.012;8.724;2023-05-07T01:44:01;17.00;;;15.30;;
11222;SDS011;5668;52.012;8.724;2023-05-07T01:46:31;16.50;;;14.80;;
11222;SDS011;5668;52.012;8.724;2023-05-07T01:49:00;17.80;;;16.00;;
11222;SDS011;5668;52.012;8.724;2023-05-07T01:51:27;16.77;;;15.07;;
11222;SDS011;5668;52.012;8.724;2023-05-07T01:53:55;16.67;;;15.07;;
11222;SDS011;5668;52.012;8.724;2023-05-07T01:56:23;18.27;;;16.17;;
11222;SDS011;5668;52.012;8.724;2023-05-07T01:58:52;17.73;;;15.93;;
11222;SDS011;5668;52.012;8.724;2023-05-07T02:01:19;18.40;;;16.57;;
11222;SDS011;5668;52.012;8.724;2023-05-07T02:03:46;17.13;;;15.43;;
11222;SDS011;5668;52.012;8.724;2023-05-07T02:06:14;16.87;;;15.27;;
11222;SDS011;5668;52.012;8.724;2023-05-07T02:08:41;18.27;;;16.47;;
11222;SDS011;5668;52.012;8.724;2023-05-07T02:11:08;18.00;;;16.10;;
11222;SDS011;5668;52.012;8.724;2023-05-07T02:13:35;17.50;;;15.77;;
11222;SDS011;5668;52.012;8.724;2023-05-07T02:16:04;18.30;;;16.23;;
11222;SDS011;5668;52.012;8.724;2023-05-07T02:18:32;17.63;;;15.93;;
11222;SDS011;5668;52.012;8.724;2023-05-07T02:21:00;18.50;;;16.10;;
11222;SDS011;5668;52.012;8.724;2023-05-07T02:23:27;18.33;;;16.43;;
11222;SDS011;5668;52.012;8.724;2023-05-07T02:25:55;19.17;;;17.27;;
11222;SDS011;5668;52.012;8.724;2023-05-07T02:28:22;18.73;;;15.53;;
11222;SDS011;5668;52.012;8.724;2023-05-07T02:30:49;18.27;;;16.37;;
11222;SDS011;5668;52.012;8.724;2023-05-07T02:33:18;18.10;;;16.40;;
11222;SDS011;5668;52.012;8.724;2023-05-07T02:35:45;18.20;;;16.37;;
11222;SDS011;5668;52.012;8.724;2023-05-07T02:38:12;17.57;;;15.83;;
11222;SDS011;5668;52.012;8.724;2023-05-07T02:40:39;17.17;;;15.33;;
11222;SDS011;5668;52.012;8.724;2023-05-07T02:43:06;19.27;;;17.20;;
11222;SDS011;5668;52.012;8.724;2023-05-07T02:45:34;18.37;;;16.37;;
11222;SDS011;5668;52.012;8.724;2023-05-07T02:48:02;18.00;;;16.13;;
11222;SDS011;5668;52.012;8.724;2023-05-07T02:50:31;17.90;;;16.20;;
11222;SDS011;5668;52.012;8.724;2023-05-07T02:52:59;17.33;;;15.63;;
11222;SDS011;5668;52.012;8.724;2023-05-07T02:55:26;18.83;;;16.50;;
11222;SDS011;5668;52.012;8.724;2023-05-07T02:57:55;19.07;;;16.63;;
11222;SDS011;5668;52.012;8.724;2023-05-07T03:00:41;18.23;;;16.43;;
11222;SDS011;5668;52.012;8.724;2023-05-07T03:03:08;18.53;;;15.90;;
11222;SDS011;5668;52.012;8.724;2023-05-07T03:05:37;18.43;;;16.50;;
11222;SDS011;5668;52.012;8.724;2023-05-07T03:08:04;18.87;;;16.87;;
11222;SDS011;5668;52.012;8.724;2023-05-07T03:10:31;19.30;;;16.33;;
11222;SDS011;5668;52.012;8.724;2023-05-07T03:12:59;18.90;;;16.47;;
11222;SDS011;5668;52.012;8.724;2023-05-07T03:15:26;18.23;;;16.43;;
11222;SDS011;5668;52.012;8.724;2023-05-07T03:17:54;17.67;;;15.87;;
11222;SDS011;5668;52.012;8.724;2023-05-07T03:20:21;17.83;;;15.90;;
11222;SDS011;5668;52.012;8.724;2023-05-07T03:22:50;16.77;;;15.07;;
11222;SDS011;5668;52.012;8.724;2023-05-07T03:25:17;16.83;;;15.20;;
11222;SDS011;5668;52.012;8.724;2023-05-07T03:27:44;18.53;;;16.70;;
11222;SDS011;5668;52.012;8.724;2023-05-07T03:30:12;19.37;;;15.90;;
11222;SDS011;5668;52.012;8.724;2023-05-07T03:32:39;18.50;;;16.53;;
11222;SDS011;5668;52.012;8.724;2023-05-07T03:35:06;19.43;;;17.37;;
11222;SDS011;5668;52.012;8.724;2023-05-07T03:37:33;18.37;;;16.47;;
11222;SDS011;5668;52.012;8.724;2023-05-07T03:40:02;18.03;;;16.23;;
11222;SDS011;5668;52.012;8.724;2023-05-07T03:42:31;18.57;;;16.67;;
11222;SDS011;5668;52.012;8.724;2023-05-07T03:44:58;18.60;;;16.70;;
11222;SDS011;5668;52.012;8.724;2023-05-07T03:47:25;18.60;;;16.67;;
11222;SDS011;5668;52.012;8.724;2023-05-07T03:49:52;19.57;;;17.43;;
11222;SDS011;5668;52.012;8.724;2023-05-07T03:52:20;18.23;;;16.43;;
11222;SDS011;5668;52.012;8.724;2023-05-07T03:54:50;18.30;;;16.50;;
11222;SDS011;5668;52.012;8.724;2023-05-07T03:57:19;18.73;;;16.93;;
11222;SDS011;5668;52.012;8.724;2023-05-07T03:59:47;17.47;;;15.67;;
11222;SDS011;5668;52.012;8.724;2023-05-07T04:02:14;17.77;;;15.97;;
11222;SDS011;5668;52.012;8.724;2023-05-07T04:04:41;19.33;;;17.33;;
11222;SDS011;5668;52.012;8.724;2023-05-07T04:07:08;19.80;;;17.80;;
11222;SDS011;5668;52.012;8.724;2023-05-07T04:09:35;18.83;;;16.87;;
11222;SDS011;5668;52.012;8.724;2023-05-07T04:12:03;19.07;;;17.07;;
11222;SDS011;5668;52.012;8.724;2023-05-07T04:14:32;19.57;;;17.57;;
11222;SDS011;5668;52.012;8.724;2023-05-07T04:16:59;20.20;;;18.20;;
11222;SDS011;5668;52.012;8.724;2023-05-07T04:19:27;18.90;;;17.00;;
11222;SDS011;5668;52.012;8.724;2023-05-07T04:21:54;20.07;;;17.23;;
11222;SDS011;5668;52.012;8.724;2023-05-07T04:24:22;20.07;;;17.67;;
11222;SDS011;5668;52.012;8.724;2023-05-07T04:26:49;19.20;;;17.20;;
11222;SDS011;5668;52.012;8.724;2023-05-07T04:29:17;19.27;;;17.27;;
11222;SDS011;5668;52.012;8.724;2023-05-07T04:31:46;19.37;;;17.40;;
11222;SDS011;5668;52.012;8.724;2023-05-07T04:34:13;20.17;;;18.03;;
11222;SDS011;5668;52.012;8.724;2023-05-07T04:36:41;19.27;;;17.30;;
11222;SDS011;5668;52.012;8.724;2023-05-07T04:39:08;19.53;;;17.53;;
11222;SDS011;5668;52.012;8.724;2023-05-07T04:41:36;18.53;;;16.73;;
11222;SDS011;5668;52.012;8.724;2023-05-07T04:44:03;19.67;;;17.73;;
11222;SDS011;5668;52.012;8.724;2023-05-07T04:46:31;19.83;;;17.17;;
11222;SDS011;5668;52.012;8.724;2023-05-07T04:49:00;20.10;;;17.93;;
11222;SDS011;5668;52.012;8.724;2023-05-07T04:51:28;19.60;;;17.57;;
11222;SDS011;5668;52.012;8.724;2023-05-07T04:53:57;19.93;;;17.83;;
11222;SDS011;5668;52.012;8.724;2023-05-07T04:56:27;20.37;;;18.03;;
11222;SDS011;5668;52.012;8.724;2023-05-07T04:58:54;19.83;;;17.83;;
11222;SDS011;5668;52.012;8.724;2023-05-07T05:01:22;20.50;;;17.57;;
11222;SDS011;5668;52.012;8.724;2023-05-07T05:03:49;19.53;;;17.13;;
11222;SDS011;5668;52.012;8.724;2023-05-07T05:06:17;20.07;;;18.07;;
11222;SDS011;5668;52.012;8.724;2023-05-07T05:08:45;19.47;;;17.53;;
11222;SDS011;5668;52.012;8.724;2023-05-07T05:11:12;19.17;;;17.23;;
11222;SDS011;5668;52.012;8.724;2023-05-07T05:13:40;20.03;;;17.30;;
11222;SDS011;5668;52.012;8.724;2023-05-07T05:16:07;18.80;;;16.90;;
11222;SDS011;5668;52.012;8.724;2023-05-07T05:18:34;20.97;;;18.60;;
11222;SDS011;5668;52.012;8.724;2023-05-07T05:21:03;19.27;;;17.13;;
11222;SDS011;5668;52.012;8.724;2023-05-07T05:23:31;20.07;;;17.73;;
11222;SDS011;5668;52.012;8.724;2023-05-07T05:25:59;18.93;;;17.03;;
11222;SDS011;5668;52.012;8.724;2023-05-07T05:28:26;19.17;;;17.17;;
11222;SDS011;5668;52.012;8.724;2023-05-07T05:30:53;18.70;;;16.73;;
11222;SDS011;5668;52.012;8.724;2023-05-07T05:33:21;19.37;;;17.33;;
11222;SDS011;5668;52.012;8.724;2023-05-07T05:35:49;19.30;;;17.17;;
11222;SDS011;5668;52.012;8.724;2023-05-07T05:38:16;18.90;;;16.90;;
11222;SDS011;5668;52.012;8.724;2023-05-07T05:40:45;18.43;;;16.53;;
11222;SDS011;5668;52.012;8.724;2023-05-07T05:43:13;18.77;;;16.87;;
11222;SDS011;5668;52.012;8.724;2023-05-07T05:45:40;18.27;;;15.77;;
11222;SDS011;5668;52.012;8.724;2023-05-07T05:48:08;18.73;;;16.77;;
11222;SDS011;5668;52.012;8.724;2023-05-07T05:50:35;18.30;;;16.47;;
11222;SDS011;5668;52.012;8.724;2023-05-07T05:53:02;18.07;;;16.13;;
11222;SDS011;5668;52.012;8.724;2023-05-07T05:55:30;18.90;;;16.53;;
11222;SDS011;5668;52.012;8.724;2023-05-07T05:57:59;17.17;;;14.80;;
11222;SDS011;5668;52.012;8.724;2023-05-07T06:00:26;26.57;;;22.77;;
11222;SDS011;5668;52.012;8.724;2023-05-07T06:02:54;94.60;;;84.20;;
11222;SDS011;5668;52.012;8.724;2023-05-07T06:05:21;40.27;;;35.93;;
11222;SDS011;5668;52.012;8.724;2023-05-07T06:07:49;33.93;;;30.33;;
11222;SDS011;5668;52.012;8.724;2023-05-07T06:10:16;42.77;;;38.50;;
11222;SDS011;5668;52.012;8.724;2023-05-07T06:12:44;24.70;;;22.30;;
11222;SDS011;5668;52.012;8.724;2023-05-07T06:15:13;27.10;;;24.37;;
11222;SDS011;5668;52.012;8.724;2023-05-07T06:17:40;39.97;;;35.97;;
11222;SDS011;5668;52.012;8.724;2023-05-07T06:20:08;26.97;;;24.17;;
11222;SDS011;5668;52.012;8.724;2023-05-07T06:22:36;52.03;;;46.63;;
11222;SDS011;5668;52.012;8.724;2023-05-07T06:25:04;34.90;;;31.20;;
11222;SDS011;5668;52.012;8.724;2023-05-07T06:27:32;34.33;;;30.73;;
11222;SDS011;5668;52.012;8.724;2023-05-07T06:30:00;31.83;;;28.47;;
11222;SDS011;5668;52.012;8.724;2023-05-07T06:32:28;38.57;;;34.53;;
11222;SDS011;5668;52.012;8.724;2023-05-07T06:34:55;24.03;;;21.60;;
11222;SDS011;5668;52.012;8.724;2023-05-07T06:37:22;17.50;;;15.70;;
11222;SDS011;5668;52.012;8.724;2023-05-07T06:39:50;15.70;;;14.00;;
11222;SDS011;5668;52.012;8.724;2023-05-07T06:42:17;20.30;;;18.20;;
11222;SDS011;5668;52.012;8.724;2023-05-07T06:44:44;15.73;;;13.97;;
11222;SDS011;5668;52.012;8.724;2023-05-07T06:47:11;18.07;;;16.20;;
11222;SDS011;5668;52.012;8.724;2023-05-07T06:49:40;16.90;;;15.20;;
11222;SDS011;5668;52.012;8.724;2023-05-07T06:52:07;16.10;;;14.40;;
11222;SDS011;5668;52.012;8.724;2023-05-07T06:54:35;15.10;;;13.57;;
11222;SDS011;5668;52.012;8.724;2023-05-07T06:57:02;14.67;;;13.27;;
11222;SDS011;5668;52.012;8.724;2023-05-07T06:59:29;14.37;;;12.63;;
11222;SDS011;5668;52.012;8.724;2023-05-07T07:01:56;14.03;;;12.53;;
11222;SDS011;5668;52.012;8.724;2023-05-07T07:04:23;15.37;;;12.30;;
11222;SDS011;5668;52.012;8.724;2023-05-07T07:06:53;19.07;;;17.17;;
11222;SDS011;5668;52.012;8.724;2023-05-07T07:09:21;16.60;;;14.80;;
11222;SDS011;5668;52.012;8.724;2023-05-07T07:11:48;16.43;;;14.83;;
11222;SDS011;5668;52.012;8.724;2023-05-07T07:14:16;15.60;;;13.90;;
11222;SDS011;5668;52.012;8.724;2023-05-07T07:16:43;17.83;;;16.00;;
11222;SDS011;5668;52.012;8.724;2023-05-07T07:19:11;15.67;;;14.07;;
11222;SDS011;5668;52.012;8.724;2023-05-07T07:21:40;13.50;;;12.13;;
11222;SDS011;5668;52.012;8.724;2023-05-07T07:24:08;18.95;;;17.05;;
11222;SDS011;5668;52.012;8.724;2023-05-07T07:26:36;17.07;;;13.47;;
11222;SDS011;5668;52.012;8.724;2023-05-07T07:29:04;12.70;;;11.40;;
11222;SDS011;5668;52.012;8.724;2023-05-07T07:31:32;13.80;;;12.40;;
11222;SDS011;5668;52.012;8.724;2023-05-07T07:33:59;13.70;;;12.23;;
11222;SDS011;5668;52.012;8.724;2023-05-07T07:36:27;14.13;;;12.73;;
11222;SDS011;5668;52.012;8.724;2023-05-07T07:38:55;11.97;;;10.77;;
11222;SDS011;5668;52.012;8.724;2023-05-07T07:41:23;12.10;;;10.80;;
11222;SDS011;5668;52.012;8.724;2023-05-07T07:43:50;12.20;;;10.68;;
11222;SDS011;5668;52.012;8.724;2023-05-07T07:46:18;10.70;;;9.67;;
11222;SDS011;5668;52.012;8.724;2023-05-07T07:48:45;10.90;;;9.80;;
11222;SDS011;5668;52.012;8.724;2023-05-07T07:51:12;11.67;;;10.47;;
11222;SDS011;5668;52.012;8.724;2023-05-07T07:53:39;11.07;;;9.87;;
11222;SDS011;5668;52.012;8.724;2023-05-07T07:56:07;11.33;;;10.23;;
11222;SDS011;5668;52.012;8.724;2023-05-07T07:58:35;12.02;;;10.90;;
11222;SDS011;5668;52.012;8.724;2023-05-07T08:01:04;10.50;;;9.55;;
11222;SDS011;5668;52.012;8.724;2023-05-07T08:03:31;10.65;;;9.65;;
11222;SDS011;5668;52.012;8.724;2023-05-07T08:05:58;11.07;;;9.88;;
11222;SDS011;5668;52.012;8.724;2023-05-07T08:08:26;11.63;;;10.50;;
11222;SDS011;5668;52.012;8.724;2023-05-07T08:10:53;10.90;;;9.80;;
11222;SDS011;5668;52.012;8.724;2023-05-07T08:13:20;10.35;;;9.35;;
11222;SDS011;5668;52.012;8.724;2023-05-07T08:15:49;10.02;;;9.02;;
11222;SDS011;5668;52.012;8.724;2023-05-07T08:18:16;10.55;;;9.55;;
11222;SDS011;5668;52.012;8.724;2023-05-07T08:20:43;10.30;;;9.30;;
11222;SDS011;5668;52.012;8.724;2023-05-07T08:23:10;9.75;;;8.75;;
11222;SDS011;5668;52.012;8.724;2023-05-07T08:25:38;10.20;;;9.20;;
11222;SDS011;5668;52.012;8.724;2023-05-07T08:28:05;10.27;;;9.35;;
11222;SDS011;5668;52.012;8.724;2023-05-07T08:30:32;9.63;;;8.73;;
11222;SDS011;5668;52.012;8.724;2023-05-07T08:33:01;10.90;;;9.70;;
11222;SDS011;5668;52.012;8.724;2023-05-07T08:35:28;10.53;;;9.50;;
11222;SDS011;5668;52.012;8.724;2023-05-07T08:37:56;9.77;;;8.87;;
11222;SDS011;5668;52.012;8.724;2023-05-07T08:40:24;9.52;;;8.63;;
11222;SDS011;5668;52.012;8.724;2023-05-07T08:42:52;10.00;;;9.00;;
11222;SDS011;5668;52.012;8.724;2023-05-07T08:45:21;9.90;;;8.93;;
11222;SDS011;5668;52.012;8.724;2023-05-07T08:47:51;10.10;;;9.10;;
11222;SDS011;5668;52.012;8.724;2023-05-07T08:50:25;9.57;;;8.65;;
11222;SDS011;5668;52.012;8.724;2023-05-07T08:52:53;9.38;;;8.48;;
11222;SDS011;5668;52.012;8.724;2023-05-07T08:55:21;9.93;;;9.02;;
11222;SDS011;5668;52.012;8.724;2023-05-07T08:57:50;9.55;;;8.65;;
11222;SDS011;5668;52.012;8.724;2023-05-07T09:00:18;9.95;;;8.98;;
11222;SDS011;5668;52.012;8.724;2023-05-07T09:02:45;9.65;;;8.75;;
11222;SDS011;5668;52.012;8.724;2023-05-07T09:05:13;10.13;;;8.90;;
11222;SDS011;5668;52.012;8.724;2023-05-07T09:07:41;9.43;;;8.50;;
11222;SDS011;5668;52.012;8.724;2023-05-07T09:10:10;9.80;;;8.90;;
11222;SDS011;5668;52.012;8.724;2023-05-07T09:12:39;9.75;;;8.85;;
11222;SDS011;5668;52.012;8.724;2023-05-07T09:15:07;9.30;;;8.40;;
11222;SDS011;5668;52.012;8.724;2023-05-07T09:17:34;9.88;;;8.95;;
11222;SDS011;5668;52.012;8.724;2023-05-07T09:20:03;8.20;;;7.43;;
11222;SDS011;5668;52.012;8.724;2023-05-07T09:22:32;9.40;;;8.50;;
11222;SDS011;5668;52.012;8.724;2023-05-07T09:25:01;9.48;;;8.48;;
11222;SDS011;5668;52.012;8.724;2023-05-07T09:27:29;8.75;;;7.95;;
11222;SDS011;5668;52.012;8.724;2023-05-07T09:29:57;9.23;;;8.20;;
11222;SDS011;5668;52.012;8.724;2023-05-07T09:32:25;8.55;;;7.75;;
11222;SDS011;5668;52.012;8.724;2023-05-07T09:34:53;8.30;;;7.60;;
11222;SDS011;5668;52.012;8.724;2023-05-07T09:37:20;8.95;;;8.05;;
11222;SDS011;5668;52.012;8.724;2023-05-07T09:39:48;9.05;;;8.15;;
11222;SDS011;5668;52.012;8.724;2023-05-07T09:42:22;8.25;;;7.45;;
11222;SDS011;5668;52.012;8.724;2023-05-07T09:44:50;9.02;;;8.23;;
11222;SDS011;5668;52.012;8.724;2023-05-07T09:47:18;9.85;;;8.85;;
11222;SDS011;5668;52.012;8.724;2023-05-07T09:49:46;8.63;;;7.82;;
11222;SDS011;5668;52.012;8.724;2023-05-07T09:52:14;8.55;;;7.65;;
11222;SDS011;5668;52.012;8.724;2023-05-07T09:54:42;8.93;;;8.02;;
11222;SDS011;5668;52.012;8.724;2023-05-07T09:57:11;9.25;;;8.35;;
11222;SDS011;5668;52.012;8.724;2023-05-07T09:59:41;9.32;;;8.43;;
11222;SDS011;5668;52.012;8.724;2023-05-07T10:02:09;7.82;;;7.13;;
11222;SDS011;5668;52.012;8.724;2023-05-07T10:04:38;8.13;;;7.22;;
11222;SDS011;5668;52.012;8.724;2023-05-07T10:07:06;9.07;;;7.97;;
11222;SDS011;5668;52.012;8.724;2023-05-07T10:09:34;8.23;;;7.50;;
11222;SDS011;5668;52.012;8.724;2023-05-07T10:12:04;8.20;;;7.40;;
11222;SDS011;5668;52.012;8.724;2023-05-07T10:14:33;8.77;;;7.93;;
11222;SDS011;5668;52.012;8.724;2023-05-07T10:17:02;8.02;;;7.22;;
11222;SDS011;5668;52.012;8.724;2023-05-07T10:19:30;7.85;;;7.05;;
11222;SDS011;5668;52.012;8.724;2023-05-07T10:21:59;7.78;;;7.07;;
11222;SDS011;5668;52.012;8.724;2023-05-07T10:24:31;8.00;;;7.20;;
11222;SDS011;5668;52.012;8.724;2023-05-07T10:27:00;8.60;;;7.70;;
11222;SDS011;5668;52.012;8.724;2023-05-07T10:29:33;8.27;;;7.47;;
11222;SDS011;5668;52.012;8.724;2023-05-07T10:35:02;7.88;;;7.13;;
11222;SDS011;5668;52.012;8.724;2023-05-07T10:37:32;7.30;;;6.55;;
11222;SDS011;5668;52.012;8.724;2023-05-07T10:40:00;7.85;;;7.13;;
11222;SDS011;5668;52.012;8.724;2023-05-07T10:42:29;7.15;;;6.45;;
11222;SDS011;5668;52.012;8.724;2023-05-07T10:44:56;7.32;;;6.63;;
11222;SDS011;5668;52.012;8.724;2023-05-07T10:47:23;8.07;;;7.28;;
11222;SDS011;5668;52.012;8.724;2023-05-07T10:58:54;7.18;;;6.47;;
11222;SDS011;5668;52.012;8.724;2023-05-07T11:04:19;6.22;;;5.65;;
11222;SDS011;5668;52.012;8.724;2023-05-07T11:09:57;6.80;;;6.10;;
11222;SDS011;5668;52.012;8.724;2023-05-07T11:15:33;6.53;;;5.93;;
11222;SDS011;5668;52.012;8.724;2023-05-07T11:18:04;5.65;;;5.22;;
11222;SDS011;5668;52.012;8.724;2023-05-07T11:20:48;5.72;;;5.22;;
11222;SDS011;5668;52.012;8.724;2023-05-07T11:26:42;6.00;;;5.40;;
11222;SDS011;5668;52.012;8.724;2023-05-07T11:29:15;5.65;;;5.15;;
11222;SDS011;5668;52.012;8.724;2023-05-07T11:31:43;5.68;;;5.18;;
11222;SDS011;5668;52.012;8.724;2023-05-07T11:34:14;5.75;;;5.25;;
11222;SDS011;5668;52.012;8.724;2023-05-07T11:36:46;6.00;;;5.40;;
11222;SDS011;5668;52.012;8.724;2023-05-07T11:39:24;6.70;;;5.18;;
11222;SDS011;5668;52.012;8.724;2023-05-07T11:41:53;5.82;;;5.32;;
11222;SDS011;5668;52.012;8.724;2023-05-07T11:44:21;5.35;;;4.88;;
11222;SDS011;5668;52.012;8.724;2023-05-07T11:46:48;5.82;;;5.22;;
11222;SDS011;5668;52.012;8.724;2023-05-07T11:49:16;5.30;;;4.63;;
11222;SDS011;5668;52.012;8.724;2023-05-07T11:51:44;5.07;;;4.65;;
11222;SDS011;5668;52.012;8.724;2023-05-07T11:54:11;5.47;;;4.97;;
11222;SDS011;5668;52.012;8.724;2023-05-07T11:56:43;4.97;;;4.57;;
11222;SDS011;5668;52.012;8.724;2023-05-07T11:59:13;8.15;;;4.38;;
11222;SDS011;5668;52.012;8.724;2023-05-07T12:01:45;9.95;;;5.22;;
11222;SDS011;5668;52.012;8.724;2023-05-07T12:04:13;12.63;;;5.15;;
11222;SDS011;5668;52.012;8.724;2023-05-07T12:06:40;5.20;;;4.70;;
11222;SDS011;5668;52.012;8.724;2023-05-07T12:09:07;4.60;;;4.20;;
11222;SDS011;5668;52.012;8.724;2023-05-07T12:11:36;4.78;;;4.38;;
11222;SDS011;5668;52.012;8.724;2023-05-07T12:14:05;4.50;;;4.10;;
11222;SDS011;5668;52.012;8.724;2023-05-07T12:16:34;5.22;;;4.18;;
11222;SDS011;5668;52.012;8.724;2023-05-07T12:19:01;5.63;;;4.07;;
11222;SDS011;5668;52.012;8.724;2023-05-07T12:21:29;4.78;;;4.07;;
11222;SDS011;5668;52.012;8.724;2023-05-07T12:23:56;4.20;;;3.85;;
11222;SDS011;5668;52.012;8.724;2023-05-07T12:26:23;4.60;;;4.20;;
11222;SDS011;5668;52.012;8.724;2023-05-07T12:28:51;4.32;;;4.00;;
11222;SDS011;5668;52.012;8.724;2023-05-07T12:31:18;4.45;;;4.03;;
11222;SDS011;5668;52.012;8.724;2023-05-07T12:33:47;4.30;;;4.00;;
11222;SDS011;5668;52.012;8.724;2023-05-07T12:36:15;5.15;;;4.28;;
11222;SDS011;5668;52.012;8.724;2023-05-07T12:38:42;4.38;;;3.97;;
11222;SDS011;5668;52.012;8.724;2023-05-07T12:41:10;4.05;;;3.75;;
11222;SDS011;5668;52.012;8.724;2023-05-07T12:43:38;4.43;;;3.97;;
11222;SDS011;5668;52.012;8.724;2023-05-07T12:46:05;4.00;;;3.70;;
11222;SDS011;5668;52.012;8.724;2023-05-07T12:48:35;4.70;;;4.20;;
11222;SDS011;5668;52.012;8.724;2023-05-07T12:51:05;4.20;;;3.80;;
11222;SDS011;5668;52.012;8.724;2023-05-07T12:53:39;3.80;;;3.50;;
11222;SDS011;5668;52.012;8.724;2023-05-07T12:56:07;4.50;;;4.10;;
11222;SDS011;5668;52.012;8.724;2023-05-07T12:58:35;4.03;;;3.65;;
11222;SDS011;5668;52.012;8.724;2023-05-07T13:01:04;4.20;;;3.58;;
11222;SDS011;5668;52.012;8.724;2023-05-07T13:03:32;5.07;;;4.28;;
11222;SDS011;5668;52.012;8.724;2023-05-07T13:06:01;4.28;;;3.90;;
11222;SDS011;5668;52.012;8.724;2023-05-07T13:08:32;4.22;;;3.83;;
11222;SDS011;5668;52.012;8.724;2023-05-07T13:11:01;3.92;;;3.63;;
11222;SDS011;5668;52.012;8.724;2023-05-07T13:13:30;5.05;;;4.55;;
11222;SDS011;5668;52.012;8.724;2023-05-07T13:15:57;3.70;;;3.40;;
11222;SDS011;5668;52.012;8.724;2023-05-07T13:18:25;4.40;;;3.97;;
11222;SDS011;5668;52.012;8.724;2023-05-07T13:20:53;4.45;;;4.05;;
11222;SDS011;5668;52.012;8.724;2023-05-07T13:23:20;4.38;;;3.97;;
11222;SDS011;5668;52.012;8.724;2023-05-07T13:25:49;5.45;;;4.18;;
11222;SDS011;5668;52.012;8.724;2023-05-07T13:28:17;4.13;;;3.65;;
11222;SDS011;5668;52.012;8.724;2023-05-07T13:30:45;4.90;;;4.18;;
11222;SDS011;5668;52.012;8.724;2023-05-07T13:33:12;5.07;;;4.68;;
11222;SDS011;5668;52.012;8.724;2023-05-07T13:35:40;4.63;;;4.22;;
11222;SDS011;5668;52.012;8.724;2023-05-07T13:38:07;5.00;;;4.50;;
11222;SDS011;5668;52.012;8.724;2023-05-07T13:40:34;4.72;;;4.32;;
11222;SDS011;5668;52.012;8.724;2023-05-07T13:43:05;5.05;;;4.60;;
11222;SDS011;5668;52.012;8.724;2023-05-07T13:45:33;5.13;;;4.63;;
11222;SDS011;5668;52.012;8.724;2023-05-07T13:48:00;4.88;;;4.30;;
11222;SDS011;5668;52.012;8.724;2023-05-07T13:50:27;5.43;;;4.63;;
11222;SDS011;5668;52.012;8.724;2023-05-07T13:52:54;4.68;;;4.20;;
11222;SDS011;5668;52.012;8.724;2023-05-07T13:55:23;5.28;;;4.78;;
11222;SDS011;5668;52.012;8.724;2023-05-07T13:57:55;4.88;;;4.47;;
11222;SDS011;5668;52.012;8.724;2023-05-07T14:00:24;5.95;;;5.00;;
11222;SDS011;5668;52.012;8.724;2023-05-07T14:02:52;6.55;;;5.05;;
11222;SDS011;5668;52.012;8.724;2023-05-07T14:05:20;5.32;;;4.88;;
11222;SDS011;5668;52.012;8.724;2023-05-07T14:07:48;5.22;;;4.82;;
11222;SDS011;5668;52.012;8.724;2023-05-07T14:10:17;5.72;;;5.22;;
11222;SDS011;5668;52.012;8.724;2023-05-07T14:12:45;5.35;;;4.95;;
11222;SDS011;5668;52.012;8.724;2023-05-07T14:15:13;5.50;;;5.00;;
11222;SDS011;5668;52.012;8.724;2023-05-07T14:17:42;5.97;;;5.40;;
11222;SDS011;5668;52.012;8.724;2023-05-07T14:20:10;6.00;;;5.45;;
11222;SDS011;5668;52.012;8.724;2023-05-07T14:22:38;6.05;;;5.43;;
11222;SDS011;5668;52.012;8.724;2023-05-07T14:25:06;6.78;;;6.18;;
11222;SDS011;5668;52.012;8.724;2023-05-07T14:27:35;6.07;;;5.57;;
11222;SDS011;5668;52.012;8.724;2023-05-07T14:30:03;6.00;;;5.50;;
11222;SDS011;5668;52.012;8.724;2023-05-07T14:32:31;6.28;;;5.68;;
11222;SDS011;5668;52.012;8.724;2023-05-07T14:35:00;5.97;;;5.40;;
11222;SDS011;5668;52.012;8.724;2023-05-07T14:37:27;7.10;;;6.40;;
11222;SDS011;5668;52.012;8.724;2023-05-07T14:39:55;6.75;;;6.15;;
11222;SDS011;5668;52.012;8.724;2023-05-07T14:42:22;6.53;;;5.82;;
11222;SDS011;5668;52.012;8.724;2023-05-07T14:44:49;6.20;;;5.50;;
11222;SDS011;5668;52.012;8.724;2023-05-07T14:47:17;6.25;;;5.65;;
11222;SDS011;5668;52.012;8.724;2023-05-07T14:49:45;6.65;;;6.05;;
11222;SDS011;5668;52.012;8.724;2023-05-07T14:52:13;6.05;;;5.55;;
11222;SDS011;5668;52.012;8.724;2023-05-07T14:54:40;6.60;;;6.00;;
11222;SDS011;5668;52.012;8.724;2023-05-07T14:57:08;6.25;;;5.72;;
11222;SDS011;5668;52.012;8.724;2023-05-07T14:59:38;6.35;;;5.82;;
11222;SDS011;5668;52.012;8.724;2023-05-07T15:02:06;6.53;;;5.95;;
11222;SDS011;5668;52.012;8.724;2023-05-07T15:04:33;6.18;;;5.65;;
11222;SDS011;5668;52.012;8.724;2023-05-07T15:07:01;6.25;;;5.65;;
11222;SDS011;5668;52.012;8.724;2023-05-07T15:09:29;6.35;;;5.75;;
11222;SDS011;5668;52.012;8.724;2023-05-07T15:11:56;6.57;;;5.90;;
11222;SDS011;5668;52.012;8.724;2023-05-07T15:14:24;6.53;;;5.93;;